Time;durP1;ratioP1;P1;durP2;ratioP2;P2;SDS_P1;SDS_P2;PMS_P1;PMS_P2;Temp;Humidity;BMP_temperature;BMP_pressure;BME280_temperature;BME280_humidity;BME280_pressure;Samples;Min_cycle;Max_cycle;Signal;HPM_P1;HPM_P2
2021/04/24 00:01:07;;;;;;;12.50;6.90;;;5.10;99.90;;;;;;5035773;28;20192;-62
2021/04/24 00:03:32;;;;;;;15.75;7.40;;;5.10;99.90;;;;;;5035475;28;20241;-63
2021/04/24 00:05:58;;;;;;;13.97;6.50;;;5.10;99.90;;;;;;5035399;28;20552;-62
2021/04/24 00:08:24;;;;;;;11.63;6.50;;;5.10;99.90;;;;;;5035639;28;20197;-62
2021/04/24 00:10:50;;;;;;;8.80;5.43;;;5.10;99.90;;;;;;5035823;28;20192;-63
2021/04/24 00:13:16;;;;;;;9.43;5.35;;;5.00;99.90;;;;;;5035245;28;20184;-62
2021/04/24 00:15:43;;;;;;;15.45;7.57;;;4.90;99.90;;;;;;5035236;28;20292;-62
2021/04/24 00:18:10;;;;;;;15.02;6.25;;;4.90;99.90;;;;;;5035398;28;20184;-62
2021/04/24 00:20:37;;;;;;;13.13;7.40;;;5.00;99.90;;;;;;5035196;28;20587;-65
2021/04/24 00:23:03;;;;;;;14.73;7.25;;;5.00;99.90;;;;;;5035358;28;20246;-63
2021/04/24 00:25:29;;;;;;;14.25;6.65;;;5.00;99.90;;;;;;5035109;28;20216;-63
2021/04/24 00:27:55;;;;;;;25.63;6.47;;;5.10;99.90;;;;;;5035351;28;20213;-63
2021/04/24 00:30:21;;;;;;;11.83;5.50;;;5.00;99.90;;;;;;5035279;28;20193;-63
2021/04/24 00:32:47;;;;;;;15.85;6.30;;;5.00;99.90;;;;;;5035157;28;20424;-63
2021/04/24 00:35:14;;;;;;;13.35;6.47;;;5.00;99.90;;;;;;5034760;28;20636;-63
2021/04/24 00:37:43;;;;;;;12.82;6.35;;;4.90;99.90;;;;;;5035080;28;20543;-62
2021/04/24 00:40:09;;;;;;;14.20;7.15;;;5.00;99.90;;;;;;5034137;28;20186;-62
2021/04/24 00:42:36;;;;;;;10.60;6.22;;;5.00;99.90;;;;;;5034979;28;20219;-61
2021/04/24 00:45:05;;;;;;;12.30;6.55;;;4.90;99.90;;;;;;5034559;28;20187;-62
2021/04/24 00:47:33;;;;;;;10.98;6.05;;;4.90;99.90;;;;;;5034851;28;20192;-62
2021/04/24 00:49:58;;;;;;;13.00;5.05;;;4.90;99.90;;;;;;5034760;28;20490;-62
2021/04/24 00:52:24;;;;;;;12.10;6.40;;;4.80;99.90;;;;;;5050619;28;20552;-64
2021/04/24 00:54:49;;;;;;;13.90;6.50;;;4.90;99.90;;;;;;5034362;28;20222;-64
2021/04/24 00:57:16;;;;;;;14.63;6.47;;;4.90;99.90;;;;;;5034681;28;20625;-64
2021/04/24 00:59:42;;;;;;;10.55;5.75;;;4.90;99.90;;;;;;5034764;28;20255;-64
2021/04/24 01:02:09;;;;;;;13.25;5.72;;;4.90;99.90;;;;;;5034528;28;20573;-62
2021/04/24 01:04:35;;;;;;;10.85;6.28;;;4.80;99.90;;;;;;5034114;28;20648;-62
2021/04/24 01:07:03;;;;;;;9.77;6.75;;;4.90;99.90;;;;;;5034571;28;20275;-63
2021/04/24 01:09:29;;;;;;;17.15;7.28;;;4.80;99.90;;;;;;5034480;28;20192;-62
2021/04/24 01:11:54;;;;;;;15.43;8.30;;;4.80;99.90;;;;;;5034315;28;20199;-62
2021/04/24 01:14:20;;;;;;;14.00;7.20;;;4.80;99.90;;;;;;5034199;28;20520;-62
2021/04/24 01:16:46;;;;;;;10.80;6.27;;;4.80;99.90;;;;;;5034388;28;20259;-62
2021/04/24 01:19:13;;;;;;;11.40;5.90;;;4.70;99.90;;;;;;5034661;28;20583;-62
2021/04/24 01:21:41;;;;;;;11.63;6.15;;;4.70;99.90;;;;;;5034286;28;20692;-62
2021/04/24 01:24:10;;;;;;;10.38;5.80;;;4.70;99.90;;;;;;5033799;28;20185;-62
2021/04/24 01:26:36;;;;;;;12.77;6.15;;;4.70;99.90;;;;;;5034060;28;20255;-62
2021/04/24 01:29:03;;;;;;;19.73;7.40;;;4.80;99.90;;;;;;5034138;28;20173;-62
2021/04/24 01:31:35;;;;;;;12.95;6.55;;;4.80;99.90;;;;;;5033346;28;20427;-61
2021/04/24 01:34:03;;;;;;;9.52;5.65;;;4.80;99.90;;;;;;5033504;28;20190;-62
2021/04/24 01:36:28;;;;;;;12.60;7.57;;;4.90;99.90;;;;;;5033976;28;20645;-62
2021/04/24 01:38:54;;;;;;;15.23;6.40;;;4.90;99.90;;;;;;5034326;28;20182;-61
2021/04/24 01:41:20;;;;;;;13.10;5.87;;;5.00;99.90;;;;;;5033833;28;20177;-61
2021/04/24 01:43:51;;;;;;;17.70;6.75;;;4.90;99.90;;;;;;5033432;28;20319;-61
2021/04/24 01:46:19;;;;;;;9.27;5.68;;;4.80;99.90;;;;;;5033864;28;20204;-61
2021/04/24 01:48:46;;;;;;;12.05;5.05;;;4.70;99.90;;;;;;5033820;28;20247;-62
2021/04/24 01:51:11;;;;;;;11.02;6.38;;;4.70;99.90;;;;;;5049343;28;20594;-62
2021/04/24 01:53:38;;;;;;;13.57;5.53;;;4.70;99.90;;;;;;5033419;28;20251;-62
2021/04/24 01:56:04;;;;;;;11.55;5.57;;;4.80;99.90;;;;;;5033602;28;20181;-62
2021/04/24 01:58:30;;;;;;;11.52;6.13;;;4.80;99.90;;;;;;5033680;28;20177;-62
2021/04/24 02:01:03;;;;;;;9.90;5.93;;;4.80;99.90;;;;;;5033467;28;20193;-62
2021/04/24 02:03:32;;;;;;;15.27;6.97;;;4.80;99.90;;;;;;5033495;28;20213;-62
2021/04/24 02:05:59;;;;;;;13.35;6.18;;;4.80;99.90;;;;;;5033374;28;20180;-62
2021/04/24 02:08:31;;;;;;;12.20;6.65;;;4.80;99.90;;;;;;5033430;28;20197;-62
2021/04/24 02:10:57;;;;;;;16.35;7.38;;;4.80;99.90;;;;;;5033554;28;20201;-62
2021/04/24 02:13:28;;;;;;;10.50;5.28;;;4.90;99.90;;;;;;5048994;28;20621;-62
2021/04/24 02:15:54;;;;;;;15.82;6.97;;;4.90;99.90;;;;;;5033300;28;20189;-62
2021/04/24 02:18:21;;;;;;;9.07;5.35;;;4.90;99.90;;;;;;5033209;28;20186;-62
2021/04/24 02:20:47;;;;;;;9.88;5.13;;;4.90;99.90;;;;;;5033205;28;20181;-63
2021/04/24 02:23:14;;;;;;;11.33;5.80;;;4.90;99.90;;;;;;5033139;28;20680;-63
2021/04/24 02:25:41;;;;;;;10.55;5.10;;;4.80;99.90;;;;;;5032776;28;20564;-63
2021/04/24 02:28:07;;;;;;;11.90;6.25;;;4.80;99.90;;;;;;5033269;28;20263;-63
2021/04/24 02:30:33;;;;;;;12.87;6.60;;;4.80;99.90;;;;;;5033245;28;20638;-63
2021/04/24 02:32:59;;;;;;;14.63;5.75;;;4.80;99.90;;;;;;5033206;28;20427;-63
2021/04/24 02:35:45;;;;;;;11.70;5.70;;;4.80;99.90;;;;;;5032850;28;20211;-64
2021/04/24 02:38:23;;;;;;;13.65;6.40;;;4.80;99.90;;;;;;5033813;28;20189;-62
2021/04/24 02:40:49;;;;;;;7.47;4.97;;;4.80;99.90;;;;;;5032129;28;20266;-62
2021/04/24 02:43:16;;;;;;;14.18;6.82;;;4.80;99.90;;;;;;5031990;28;20657;-63
2021/04/24 02:45:43;;;;;;;11.80;5.60;;;4.80;99.90;;;;;;5032685;28;20204;-62
2021/04/24 02:48:09;;;;;;;9.63;5.13;;;4.70;99.90;;;;;;5032726;28;20316;-62
2021/04/24 02:50:35;;;;;;;9.52;5.32;;;4.60;99.90;;;;;;5031787;28;20648;-62
2021/04/24 02:53:01;;;;;;;11.98;5.85;;;4.70;99.90;;;;;;5031639;28;20573;-62
2021/04/24 02:55:27;;;;;;;11.75;5.82;;;4.70;99.90;;;;;;5032449;28;20569;-61
2021/04/24 02:57:52;;;;;;;8.57;5.50;;;4.60;99.90;;;;;;5032852;28;20189;-61
2021/04/24 03:00:20;;;;;;;10.53;5.60;;;4.70;99.90;;;;;;5031793;28;20193;-61
2021/04/24 03:02:46;;;;;;;11.52;4.57;;;4.70;99.90;;;;;;5030356;28;20277;-61
2021/04/24 03:05:16;;;;;;;10.50;5.97;;;4.70;99.90;;;;;;5031765;28;20610;-61
2021/04/24 03:07:43;;;;;;;8.88;5.15;;;4.70;99.90;;;;;;5032897;28;20181;-61
2021/04/24 03:10:10;;;;;;;18.63;6.15;;;4.80;99.90;;;;;;5032495;28;20193;-61
2021/04/24 03:12:35;;;;;;;9.70;5.95;;;4.70;99.90;;;;;;5032474;28;20193;-62
2021/04/24 03:15:02;;;;;;;10.97;5.53;;;4.70;99.90;;;;;;5031965;28;20184;-61
2021/04/24 03:17:28;;;;;;;11.13;5.22;;;4.80;99.90;;;;;;5032457;28;20961;-61
2021/04/24 03:19:53;;;;;;;13.23;6.60;;;4.70;99.90;;;;;;5032402;28;20193;-61
2021/04/24 03:22:19;;;;;;;8.37;4.77;;;4.70;99.90;;;;;;5032750;28;20220;-61
2021/04/24 03:24:44;;;;;;;12.73;5.63;;;4.70;99.90;;;;;;5032036;28;20181;-61
2021/04/24 03:27:10;;;;;;;9.20;4.53;;;4.70;99.90;;;;;;5032584;28;20618;-61
2021/04/24 03:29:35;;;;;;;8.80;5.10;;;4.70;99.90;;;;;;5032516;28;20185;-61
2021/04/24 03:32:01;;;;;;;11.63;4.80;;;4.70;99.90;;;;;;5032179;28;20185;-61
2021/04/24 03:34:26;;;;;;;9.67;5.13;;;4.80;99.90;;;;;;5032187;28;20193;-61
2021/04/24 03:36:52;;;;;;;7.10;4.07;;;4.70;99.90;;;;;;5032537;28;20214;-61
2021/04/24 03:39:17;;;;;;;8.83;4.27;;;4.70;99.90;;;;;;5032500;28;20937;-61
2021/04/24 03:41:43;;;;;;;9.43;4.43;;;4.70;99.90;;;;;;5032477;28;22071;-61
2021/04/24 03:44:08;;;;;;;9.20;4.60;;;4.70;99.90;;;;;;5031927;28;20189;-61
2021/04/24 03:46:34;;;;;;;7.20;4.73;;;4.70;99.90;;;;;;5032201;28;20186;-61
2021/04/24 03:48:59;;;;;;;9.37;4.40;;;4.80;99.90;;;;;;5032421;28;20293;-61
2021/04/24 03:51:25;;;;;;;10.70;4.77;;;4.80;99.90;;;;;;5032271;28;20322;-61
2021/04/24 03:53:50;;;;;;;8.40;4.30;;;4.90;99.90;;;;;;5032777;28;20626;-61
2021/04/24 03:56:16;;;;;;;13.70;4.60;;;5.00;99.90;;;;;;5035964;28;20689;-61
2021/04/24 03:58:42;;;;;;;11.67;4.80;;;4.90;99.90;;;;;;5035926;28;20174;-61
2021/04/24 04:01:07;;;;;;;9.43;4.50;;;5.00;99.90;;;;;;5035764;28;20180;-61
2021/04/24 04:03:33;;;;;;;8.80;4.40;;;4.90;99.90;;;;;;5035868;28;20311;-61
2021/04/24 04:05:58;;;;;;;11.47;4.00;;;5.00;99.90;;;;;;5035293;28;20193;-61
2021/04/24 04:08:24;;;;;;;10.77;5.53;;;5.10;99.90;;;;;;5035570;28;20205;-61
2021/04/24 04:10:49;;;;;;;8.53;4.30;;;5.20;99.90;;;;;;5051435;28;20181;-61
2021/04/24 04:13:15;;;;;;;8.37;4.50;;;5.10;99.90;;;;;;5035563;28;20185;-61
2021/04/24 04:15:42;;;;;;;8.23;5.73;;;5.00;99.90;;;;;;5035109;28;20283;-61
2021/04/24 04:18:15;;;;;;;8.40;4.50;;;5.00;99.90;;;;;;5035883;28;20276;-61
2021/04/24 04:20:52;;;;;;;10.75;6.10;;;5.10;99.90;;;;;;5035728;28;20185;-61
2021/04/24 04:23:19;;;;;;;7.63;4.28;;;5.10;99.90;;;;;;5035366;28;20575;-62
2021/04/24 04:25:46;;;;;;;12.65;5.65;;;5.20;99.90;;;;;;5035302;28;20178;-61
2021/04/24 04:28:12;;;;;;;11.80;5.10;;;5.20;99.90;;;;;;5035410;28;20247;-61
2021/04/24 04:30:39;;;;;;;7.63;4.22;;;5.20;99.90;;;;;;5035158;28;20170;-61
2021/04/24 04:33:07;;;;;;;9.05;4.35;;;5.20;99.90;;;;;;5034914;28;20634;-61
2021/04/24 04:35:34;;;;;;;10.98;5.05;;;5.30;99.90;;;;;;5034883;28;20185;-62
2021/04/24 04:37:59;;;;;;;10.32;4.72;;;5.40;99.90;;;;;;5035168;28;20271;-61
2021/04/24 04:40:25;;;;;;;8.07;4.53;;;5.40;99.90;;;;;;5035307;28;20291;-62
2021/04/24 04:42:50;;;;;;;8.43;4.70;;;5.60;99.90;;;;;;5050535;28;20282;-61
2021/04/24 04:45:19;;;;;;;12.90;4.27;;;5.50;99.90;;;;;;5034752;28;20181;-61
2021/04/24 04:47:45;;;;;;;10.75;6.78;;;5.50;99.90;;;;;;5035190;28;20207;-62
2021/04/24 04:50:15;;;;;;;10.52;5.20;;;5.50;99.90;;;;;;5035130;28;20174;-62
2021/04/24 04:52:40;;;;;;;11.35;4.90;;;5.60;99.90;;;;;;5034901;28;20269;-62
2021/04/24 04:55:08;;;;;;;8.20;4.30;;;5.70;99.90;;;;;;5034217;28;20224;-62
2021/04/24 04:57:34;;;;;;;18.33;6.55;;;5.60;99.90;;;;;;5034612;28;20852;-62
2021/04/24 04:59:59;;;;;;;11.05;5.40;;;5.70;99.90;;;;;;5034803;28;20662;-62
2021/04/24 05:02:26;;;;;;;8.10;4.37;;;5.80;78.60;;;;;;5034708;28;20210;-62
2021/04/24 05:04:51;;;;;;;9.52;4.45;;;5.70;75.20;;;;;;5033607;28;20425;-62
2021/04/24 05:07:17;;;;;;;9.93;4.70;;;5.80;65.20;;;;;;5034511;28;20198;-62
2021/04/24 05:09:42;;;;;;;8.33;4.17;;;5.90;20.10;;;;;;5034564;28;20560;-62
2021/04/24 05:12:09;;;;;;;12.03;4.90;;;6.20;1.00;;;;;;5034670;28;20238;-62
2021/04/24 05:14:35;;;;;;;10.85;4.93;;;6.30;1.00;;;;;;5033951;28;20181;-62
2021/04/24 05:17:00;;;;;;;10.55;4.50;;;6.40;1.00;;;;;;5034578;28;20182;-62
2021/04/24 05:19:26;;;;;;;7.80;4.90;;;6.80;1.00;;;;;;5034597;28;20185;-62
2021/04/24 05:21:52;;;;;;;8.33;3.80;;;7.20;99.90;;;;;;5034372;28;20202;-62
2021/04/24 05:24:18;;;;;;;6.90;4.60;;;7.30;99.90;;;;;;5034411;28;20178;-62
2021/04/24 05:26:44;;;;;;;13.40;5.60;;;7.80;99.90;;;;;;5034465;28;20500;-62
2021/04/24 05:29:09;;;;;;;8.13;4.20;;;8.20;99.90;;;;;;5033435;28;20180;-62
2021/04/24 05:31:35;;;;;;;9.10;4.23;;;8.60;99.90;;;;;;5034186;28;20243;-62
2021/04/24 05:34:00;;;;;;;10.17;4.50;;;9.50;99.90;;;;;;5033654;28;20701;-62
2021/04/24 05:36:26;;;;;;;7.67;4.00;;;9.80;17.80;;;;;;5034135;28;20245;-62
2021/04/24 05:38:53;;;;;;;11.17;4.50;;;9.70;99.90;;;;;;5033183;28;20629;-62
2021/04/24 05:41:22;;;;;;;13.73;4.22;;;9.80;1.00;;;;;;5034409;28;20505;-62
2021/04/24 05:43:49;;;;;;;7.97;3.40;;;10.40;1.00;;;;;;5033427;28;20237;-63
2021/04/24 05:46:16;;;;;;;6.35;3.95;;;10.40;99.90;;;;;;5033814;28;20180;-63
2021/04/24 05:48:41;;;;;;;8.13;4.18;;;10.00;1.00;;;;;;5034079;28;20281;-63
2021/04/24 05:51:07;;;;;;;8.57;4.70;;;9.20;99.90;;;;;;5033996;28;20580;-63
2021/04/24 05:53:33;;;;;;;7.50;3.30;;;10.30;1.00;;;;;;5033474;28;20673;-64
2021/04/24 05:55:58;;;;;;;8.87;4.10;;;9.70;1.00;;;;;;5033100;28;20199;-64
2021/04/24 05:58:24;;;;;;;6.63;4.57;;;9.70;99.90;;;;;;5033572;28;20572;-64
2021/04/24 06:00:49;;;;;;;7.60;3.60;;;10.30;1.00;;;;;;5033663;28;20207;-64
2021/04/24 06:03:16;;;;;;;8.87;4.50;;;10.30;99.90;;;;;;5033322;28;20205;-64
2021/04/24 06:05:41;;;;;;;7.53;3.85;;;10.20;99.90;;;;;;5033130;28;20187;-64
2021/04/24 06:08:07;;;;;;;8.50;4.73;;;10.20;99.90;;;;;;5033235;28;20185;-64
2021/04/24 06:10:33;;;;;;;7.90;4.00;;;10.40;99.90;;;;;;5033482;28;20215;-64
2021/04/24 06:12:59;;;;;;;7.53;3.50;;;11.10;1.00;;;;;;5033329;28;20208;-64
2021/04/24 06:15:24;;;;;;;9.07;3.43;;;11.30;1.00;;;;;;5032729;28;20232;-63
2021/04/24 06:17:50;;;;;;;5.80;3.73;;;10.60;99.90;;;;;;5033302;28;20225;-63
2021/04/24 06:20:16;;;;;;;7.53;3.83;;;9.80;1.00;;;;;;5033894;28;20212;-63
2021/04/24 06:22:42;;;;;;;6.80;3.50;;;10.00;1.00;;;;;;5032726;28;20675;-64
2021/04/24 06:25:10;;;;;;;5.90;3.90;;;9.80;1.00;;;;;;5032885;28;20431;-64
2021/04/24 06:27:35;;;;;;;7.40;2.97;;;10.20;1.00;;;;;;5033117;28;20172;-64
2021/04/24 06:30:02;;;;;;;9.33;3.80;;;11.00;1.00;;;;;;5033222;28;20202;-64
2021/04/24 06:32:28;;;;;;;9.25;3.22;;;11.00;99.90;;;;;;5032990;28;20208;-64
2021/04/24 06:34:53;;;;;;;10.60;4.33;;;10.40;99.90;;;;;;5031651;28;20634;-64
2021/04/24 06:37:19;;;;;;;11.63;3.50;;;10.30;1.00;;;;;;5033067;28;20189;-64
2021/04/24 06:39:44;;;;;;;8.33;3.90;;;10.20;1.00;;;;;;5033097;28;20554;-65
2021/04/24 06:42:14;;;;;;;5.77;2.63;;;10.20;99.90;;;;;;5048335;28;20208;-66
2021/04/24 06:44:39;;;;;;;7.82;2.92;;;10.00;31.30;;;;;;5052096;28;20526;-65
2021/04/24 06:47:05;;;;;;;9.70;4.00;;;10.50;99.90;;;;;;5052220;28;20188;-66
2021/04/24 06:49:30;;;;;;;17.23;3.57;;;10.60;1.00;;;;;;5048892;28;20633;-66
2021/04/24 06:51:56;;;;;;;8.93;3.60;;;10.80;1.00;;;;;;5050919;28;20272;-66
2021/04/24 06:54:22;;;;;;;12.30;3.37;;;10.80;1.00;;;;;;5039039;28;20212;-67
2021/04/24 06:56:47;;;;;;;7.40;3.87;;;10.30;47.20;;;;;;5049209;28;20258;-67
2021/04/24 06:59:13;;;;;;;6.23;3.10;;;10.80;1.00;;;;;;5032101;28;20180;-67
2021/04/24 07:01:38;;;;;;;7.23;3.10;;;10.90;1.00;;;;;;5032006;28;20182;-65
2021/04/24 07:04:04;;;;;;;7.30;3.10;;;10.60;1.00;;;;;;5049730;28;20180;-65
2021/04/24 07:06:30;;;;;;;14.27;3.90;;;11.50;99.90;;;;;;5051358;28;20238;-65
2021/04/24 07:08:55;;;;;;;6.40;3.20;;;12.50;99.90;;;;;;5052539;28;20474;-65
2021/04/24 07:11:21;;;;;;;10.97;3.93;;;12.00;1.00;;;;;;5052507;28;20515;-64
2021/04/24 07:13:47;;;;;;;10.00;3.73;;;12.00;1.00;;;;;;5051493;28;20180;-64
2021/04/24 07:16:13;;;;;;;8.37;3.47;;;11.10;99.90;;;;;;5051554;28;20271;-64
2021/04/24 07:18:43;;;;;;;8.40;4.47;;;10.20;99.90;;;;;;5052859;28;20181;-64
2021/04/24 07:21:09;;;;;;;8.73;3.22;;;9.80;99.90;;;;;;5052113;28;20969;-64
2021/04/24 07:23:36;;;;;;;6.67;2.43;;;9.30;40.20;;;;;;5052352;28;20227;-65
2021/04/24 07:26:02;;;;;;;9.98;2.90;;;9.00;1.00;;;;;;5050861;28;20617;-64
2021/04/24 07:28:28;;;;;;;11.95;4.03;;;9.20;1.00;;;;;;5053101;28;20180;-64
2021/04/24 07:30:55;;;;;;;9.50;3.37;;;9.40;44.80;;;;;;5056507;28;20267;-64
2021/04/24 07:33:23;;;;;;;7.13;3.35;;;9.50;99.90;;;;;;5056849;28;20230;-64
2021/04/24 07:35:52;;;;;;;12.02;3.10;;;9.00;99.90;;;;;;5055756;28;20618;-63
2021/04/24 07:38:19;;;;;;;8.18;3.08;;;8.80;1.00;;;;;;5056279;28;20628;-63
2021/04/24 07:40:45;;;;;;;4.80;2.30;;;8.80;1.00;;;;;;5055434;28;20515;-63
2021/04/24 07:43:11;;;;;;;10.80;3.38;;;9.00;1.00;;;;;;5055861;28;20291;-68
2021/04/24 07:45:37;;;;;;;13.23;3.28;;;9.10;99.90;;;;;;5056109;28;20176;-66
2021/04/24 07:48:04;;;;;;;10.00;2.80;;;9.40;99.90;;;;;;5056549;28;20205;-68
2021/04/24 07:50:30;;;;;;;5.60;1.98;;;9.30;1.00;;;;;;5055284;28;20195;-66
2021/04/24 07:52:55;;;;;;;17.83;3.80;;;9.10;1.00;;;;;;5055940;28;20184;-65
2021/04/24 07:55:21;;;;;;;6.53;2.57;;;9.30;99.90;;;;;;5055181;28;20193;-65
2021/04/24 07:57:47;;;;;;;5.60;2.67;;;9.40;1.00;;;;;;5055818;28;20192;-65
2021/04/24 08:00:13;;;;;;;10.37;3.63;;;9.40;1.00;;;;;;5055754;28;20323;-65
2021/04/24 08:02:39;;;;;;;5.35;1.85;;;9.30;1.00;;;;;;5055586;28;20658;-64
2021/04/24 08:05:05;;;;;;;4.80;2.67;;;9.10;99.90;;;;;;5055215;28;20192;-65
2021/04/24 08:07:31;;;;;;;6.38;2.17;;;9.20;99.90;;;;;;5055566;28;20549;-65
2021/04/24 08:09:56;;;;;;;9.47;2.97;;;9.50;1.00;;;;;;5055390;28;20689;-65
2021/04/24 08:12:22;;;;;;;7.63;2.57;;;9.60;1.00;;;;;;5055596;28;20699;-65
2021/04/24 08:14:47;;;;;;;5.47;2.60;;;9.60;1.00;;;;;;5055163;28;20195;-62
2021/04/24 08:17:14;;;;;;;6.93;3.30;;;9.90;1.00;;;;;;5055002;28;20586;-65
2021/04/24 08:19:40;;;;;;;10.10;2.72;;;10.20;99.90;;;;;;5056045;28;20200;-68
2021/04/24 08:22:07;;;;;;;6.22;2.47;;;10.20;1.00;;;;;;5055845;28;20207;-68
2021/04/24 08:24:32;;;;;;;8.52;3.50;;;10.10;1.00;;;;;;5053791;28;20203;-68
2021/04/24 08:26:58;;;;;;;11.17;3.07;;;10.00;99.90;;;;;;5054069;28;20609;-64
2021/04/24 08:29:24;;;;;;;9.13;2.13;;;10.30;99.90;;;;;;5044508;28;20170;-66
2021/04/24 08:31:49;;;;;;;7.73;4.07;;;10.60;99.90;;;;;;5050256;28;20185;-65
2021/04/24 08:34:17;;;;;;;7.80;3.30;;;10.40;99.90;;;;;;5050620;28;20510;-65
2021/04/24 08:36:43;;;;;;;9.65;2.85;;;10.40;48.80;;;;;;5047167;28;20181;-66
2021/04/24 08:39:08;;;;;;;6.50;2.43;;;10.30;99.90;;;;;;5052407;28;20173;-66
2021/04/24 08:41:40;;;;;;;7.73;3.00;;;10.60;1.00;;;;;;5049931;28;20183;-67
2021/04/24 08:44:06;;;;;;;9.05;3.15;;;10.50;1.00;;;;;;5054594;28;20181;-67
2021/04/24 08:50:06;;;;;;;7.93;2.30;;;9.90;1.00;;;;;;5049950;28;20283;-65
2021/04/24 08:52:32;;;;;;;5.30;2.10;;;10.80;1.00;;;;;;5054958;28;20204;-68
2021/04/24 08:54:57;;;;;;;10.47;2.73;;;11.60;18.90;;;;;;5054192;28;20900;-67
2021/04/24 08:57:23;;;;;;;5.83;2.43;;;12.00;99.90;;;;;;5053859;28;20203;-68
2021/04/24 08:59:48;;;;;;;3.87;2.40;;;12.40;99.90;;;;;;5053455;28;20581;-68
2021/04/24 09:02:15;;;;;;;8.00;2.30;;;12.10;1.00;;;;;;5054694;28;20219;-65
2021/04/24 09:04:40;;;;;;;6.70;2.72;;;10.50;35.10;;;;;;5054042;28;20218;-67
2021/04/24 09:07:06;;;;;;;5.90;2.40;;;10.30;99.90;;;;;;5053518;28;20180;-69
2021/04/24 09:09:32;;;;;;;9.90;3.23;;;10.90;99.90;;;;;;5053289;28;20192;-69
2021/04/24 09:12:01;;;;;;;3.80;2.13;;;11.50;1.00;;;;;;5054349;28;20184;-69
2021/04/24 09:14:29;;;;;;;8.25;2.88;;;11.40;1.00;;;;;;5053134;28;20196;-69
2021/04/24 09:16:55;;;;;;;11.98;2.60;;;11.80;1.00;;;;;;5054389;28;20251;-70
2021/04/24 09:19:33;;;;;;;4.53;2.58;;;11.80;1.00;;;;;;5053378;28;20195;-66
2021/04/24 09:22:20;;;;;;;7.45;2.55;;;11.20;1.00;;;;;;5052969;28;20196;-67
2021/04/24 09:24:49;;;;;;;6.82;2.17;;;11.30;1.00;;;;;;5054155;28;20177;-68
2021/04/24 09:27:15;;;;;;;6.15;2.63;;;11.10;1.00;;;;;;5053186;28;20177;-67
2021/04/24 09:29:41;;;;;;;4.35;2.20;;;11.20;1.00;;;;;;5053942;28;20178;-68
2021/04/24 09:32:21;;;;;;;5.20;2.90;;;11.20;1.00;;;;;;5053701;28;20191;-66
2021/04/24 09:34:48;;;;;;;4.65;2.50;;;11.30;1.00;;;;;;5053047;28;20181;-68
2021/04/24 09:37:22;;;;;;;5.75;2.42;;;11.30;1.00;;;;;;5040900;28;20194;-69
2021/04/24 09:39:51;;;;;;;7.05;4.03;;;11.50;1.00;;;;;;5033716;28;20177;-68
2021/04/24 09:42:39;;;;;;;5.10;2.33;;;11.00;1.00;;;;;;5032463;28;20205;-66
2021/04/24 09:45:20;;;;;;;3.80;2.30;;;11.20;1.00;;;;;;5034106;28;20181;-67
2021/04/24 09:47:46;;;;;;;3.97;1.63;;;11.80;1.00;;;;;;5034434;28;20174;-67
2021/04/24 09:50:17;;;;;;;4.20;2.00;;;11.50;1.00;;;;;;5051812;28;20238;-65
2021/04/24 09:52:44;;;;;;;3.47;1.40;;;11.30;1.00;;;;;;5052829;28;20200;-69
2021/04/24 09:55:39;;;;;;;2.22;1.35;;;11.60;1.00;;;;;;5053540;28;20188;-65
2021/04/24 09:58:22;;;;;;;5.28;2.10;;;11.80;1.00;;;;;;5047079;28;20192;-66
2021/04/24 10:00:47;;;;;;;4.20;1.50;;;12.10;1.00;;;;;;5053308;28;20188;-68
2021/04/24 10:03:33;;;;;;;2.00;1.20;;;12.10;1.00;;;;;;5051641;28;20208;-65
2021/04/24 10:06:29;;;;;;;5.55;2.00;;;11.60;1.00;;;;;;5052874;28;20173;-66
2021/04/24 10:09:16;;;;;;;4.15;2.00;;;11.00;1.00;;;;;;5052513;28;20195;-66
2021/04/24 10:11:53;;;;;;;3.42;1.60;;;11.30;1.00;;;;;;5053139;28;20303;-68
2021/04/24 10:14:39;;;;;;;3.38;1.75;;;11.50;1.00;;;;;;5052424;28;20172;-66
2021/04/24 10:17:07;;;;;;;5.57;1.92;;;11.80;1.00;;;;;;5051838;28;20188;-66
2021/04/24 10:19:35;;;;;;;3.90;1.48;;;12.30;1.00;;;;;;5053163;28;20238;-67
2021/04/24 10:22:02;;;;;;;3.22;2.08;;;11.80;1.00;;;;;;5053258;28;20513;-67
2021/04/24 10:24:28;;;;;;;2.47;1.85;;;12.50;1.00;;;;;;5052518;28;20268;-65
2021/04/24 10:26:55;;;;;;;5.90;2.20;;;13.40;1.00;;;;;;5052726;28;20700;-64
2021/04/24 10:29:21;;;;;;;3.67;2.10;;;13.20;1.00;;;;;;5052849;28;20564;-66
2021/04/24 10:31:47;;;;;;;2.90;1.45;;;12.70;1.00;;;;;;5052498;28;20219;-65
2021/04/24 10:34:14;;;;;;;2.58;1.70;;;12.10;1.00;;;;;;5052157;28;20234;-66
2021/04/24 10:36:40;;;;;;;3.65;1.80;;;11.70;1.00;;;;;;5052292;28;20197;-68
2021/04/24 10:39:31;;;;;;;5.32;2.90;;;11.50;1.00;;;;;;5052426;28;20192;-67
2021/04/24 10:42:16;;;;;;;4.85;2.30;;;11.50;1.00;;;;;;5051919;28;20193;-63
2021/04/24 10:44:52;;;;;;;3.50;1.98;;;12.00;1.00;;;;;;5052355;28;20203;-67
2021/04/24 10:47:37;;;;;;;5.00;2.60;;;12.20;1.00;;;;;;5051446;28;20621;-67
2021/04/24 10:50:04;;;;;;;4.32;1.70;;;11.60;1.00;;;;;;5052340;28;20645;-68
2021/04/24 10:52:30;;;;;;;4.00;2.10;;;11.90;1.00;;;;;;5052189;28;20177;-65
2021/04/24 10:55:13;;;;;;;5.33;2.47;;;12.00;1.00;;;;;;5052486;28;20184;-65
2021/04/24 10:57:55;;;;;;;3.72;1.90;;;11.80;1.00;;;;;;5052731;28;20233;-64
2021/04/24 11:00:50;;;;;;;2.95;1.70;;;12.30;1.00;;;;;;5051233;28;20593;-65
2021/04/24 11:03:34;;;;;;;4.00;2.00;;;12.50;1.00;;;;;;5052629;28;20212;-64
2021/04/24 11:06:16;;;;;;;2.60;1.90;;;12.90;1.00;;;;;;5056492;28;20221;-63
2021/04/24 11:08:48;;;;;;;4.22;2.60;;;12.60;1.00;;;;;;5056751;28;20557;-64
2021/04/24 11:11:18;;;;;;;3.67;1.90;;;11.80;1.00;;;;;;5056620;28;20264;-64
2021/04/24 11:13:48;;;;;;;4.57;2.85;;;11.40;1.00;;;;;;5055753;28;20627;-64
2021/04/24 11:16:16;;;;;;;6.88;2.30;;;11.40;1.00;;;;;;5056350;28;20176;-65
2021/04/24 11:18:45;;;;;;;5.22;2.00;;;11.50;1.00;;;;;;5056703;28;20191;-65
2021/04/24 11:21:29;;;;;;;4.85;1.95;;;12.30;1.00;;;;;;5056363;28;20185;-64
2021/04/24 11:24:11;;;;;;;6.78;2.85;;;13.00;1.00;;;;;;5055073;28;20215;-65
2021/04/24 11:26:36;;;;;;;6.20;2.35;;;13.50;1.00;;;;;;5056383;28;20177;-63
2021/04/24 11:29:09;;;;;;;5.80;2.23;;;13.20;1.00;;;;;;5056557;28;20187;-67
2021/04/24 11:31:50;;;;;;;3.05;2.10;;;13.30;1.00;;;;;;5055057;28;20617;-68
2021/04/24 11:34:41;;;;;;;5.35;2.40;;;13.40;1.00;;;;;;5056109;28;20175;-67
2021/04/24 11:37:20;;;;;;;5.55;2.63;;;14.30;1.00;;;;;;5044443;28;20173;-63
2021/04/24 11:40:04;;;;;;;4.65;2.78;;;13.20;1.00;;;;;;5036117;28;20196;-60
2021/04/24 11:42:31;;;;;;;4.28;2.20;;;12.60;1.00;;;;;;5035895;28;20630;-66
2021/04/24 11:44:57;;;;;;;5.90;2.35;;;12.30;1.00;;;;;;5035743;28;20181;-65
2021/04/24 11:47:51;;;;;;;2.45;1.92;;;11.80;1.00;;;;;;5035993;28;20173;-65
2021/04/24 11:50:18;;;;;;;4.90;2.58;;;12.10;1.00;;;;;;5036186;28;20174;-64
2021/04/24 11:52:56;;;;;;;6.22;2.35;;;12.00;1.00;;;;;;5035431;28;20205;-62
2021/04/24 11:55:28;;;;;;;3.58;2.25;;;11.90;1.00;;;;;;5036072;28;20205;-62
2021/04/24 11:58:11;;;;;;;4.82;1.95;;;11.80;1.00;;;;;;5036048;28;20194;-64
2021/04/24 12:00:38;;;;;;;5.40;2.45;;;11.10;1.00;;;;;;5040186;28;20209;-65
2021/04/24 12:03:04;;;;;;;3.55;2.40;;;11.10;1.00;;;;;;5046453;28;20211;-66
2021/04/24 12:05:31;;;;;;;3.90;1.97;;;11.40;1.00;;;;;;5046507;28;20185;-64
2021/04/24 12:07:57;;;;;;;4.93;1.70;;;11.30;1.00;;;;;;5043945;28;20523;-64
2021/04/24 12:10:29;;;;;;;6.73;2.50;;;11.30;1.00;;;;;;5047295;28;20211;-65
2021/04/24 12:13:09;;;;;;;3.85;1.98;;;11.30;1.00;;;;;;5045149;28;20185;-65
2021/04/24 12:15:35;;;;;;;5.00;2.33;;;11.80;1.00;;;;;;5046414;28;20184;-62
2021/04/24 12:18:04;;;;;;;3.50;2.60;;;11.80;1.00;;;;;;5040261;28;20630;-61
2021/04/24 12:20:35;;;;;;;5.00;1.85;;;12.10;1.00;;;;;;5043294;28;20180;-63
2021/04/24 12:23:04;;;;;;;3.75;2.17;;;12.10;1.00;;;;;;5044747;28;20199;-61
2021/04/24 12:25:32;;;;;;;5.15;2.67;;;12.00;1.00;;;;;;5044663;28;20189;-61
2021/04/24 12:28:06;;;;;;;4.20;2.15;;;11.90;1.00;;;;;;5048180;28;20200;-65
2021/04/24 12:30:37;;;;;;;8.27;1.92;;;11.90;1.00;;;;;;5040577;28;20504;-65
2021/04/24 12:33:03;;;;;;;4.75;2.30;;;11.60;1.00;;;;;;5045517;28;20174;-64
2021/04/24 12:35:30;;;;;;;4.47;1.77;;;11.80;1.00;;;;;;5039129;28;20257;-64
2021/04/24 12:38:04;;;;;;;2.72;1.98;;;11.80;1.00;;;;;;5045673;28;20270;-62
2021/04/24 12:40:31;;;;;;;4.75;2.50;;;12.20;1.00;;;;;;5035073;28;20247;-62
2021/04/24 12:43:20;;;;;;;2.72;2.08;;;13.00;1.00;;;;;;5032545;28;20220;-62
2021/04/24 12:45:47;;;;;;;4.80;2.65;;;13.90;1.00;;;;;;5032870;28;20240;-63
2021/04/24 12:48:21;;;;;;;3.75;2.00;;;14.40;1.00;;;;;;5033792;28;20185;-63
2021/04/24 12:50:49;;;;;;;3.88;2.35;;;13.80;1.00;;;;;;5033861;28;20181;-62
2021/04/24 12:53:33;;;;;;;5.63;2.38;;;13.70;1.00;;;;;;5034498;28;20188;-62
2021/04/24 12:56:04;;;;;;;2.97;1.90;;;12.60;1.00;;;;;;5033718;28;20639;-65
2021/04/24 12:58:35;;;;;;;7.13;3.28;;;12.00;1.00;;;;;;5034943;28;20193;-64
2021/04/24 13:01:15;;;;;;;3.33;2.10;;;11.70;1.00;;;;;;5045268;28;20672;-64
2021/04/24 13:03:46;;;;;;;3.20;2.30;;;11.60;1.00;;;;;;5054081;28;20295;-64